トビリシ国際空港の過去48時間の天気

トビリシ国際空港 (Tbilisi)

現在時刻: 9/28 14:05 +04 (9/28 10:05 UTC) 以下の時間は現地時間です。

過去48時間のMETAR気象情報
時間 風向 風速(m/s) 視程 気温(℃) 湿度(%) 気圧(hPa) 天気現象
28 13:30 不定 2 10km以上 22 41 1028
28 13:00 3 10km以上 21 43 1028
28 12:30 2 10km以上 20 49 1028
28 12:00 南西 2 10km以上 19 52 1028
28 11:30 3 10km以上 19 56 1028
28 11:00 南東 2 10km以上 19 52 1028
28 10:30 南南東 2 10km以上 19 52 1028
28 10:00 南南東 2 10km以上 19 52 1028
28 09:30 2 10km以上 18 56 1028
28 09:00 静穏 0 10km以上 18 60 1028
28 08:30 静穏 0 10km以上 18 60 1027
28 08:00 南東 1 10km以上 17 63 1027
28 07:30 2 10km以上 17 63 1027
28 07:00 東南東 1 10km以上 17 63 1027
28 06:30 静穏 0 10km以上 17 63 1026
28 06:00 静穏 0 10km以上 17 68 1026
28 05:30 静穏 0 10km以上 17 72 1026
28 05:00 静穏 0 10km以上 17 77 1026
28 04:30 不定 1 10km以上 18 73 1026
28 04:00 1 10km以上 18 73 1025
28 03:30 南東 2 10km以上 18 73 1025
28 03:00 南東 3 10km以上 18 73 1025
28 02:00 東南東 2 10km以上 19 68 1024
28 01:30 静穏 0 10km以上 20 64 1024
28 01:00 不定 1 10km以上 20 64 1024
28 00:30 西 2 10km以上 20 64 1024
28 00:00 北東 2 10km以上 20 64 1023
UGTB 280930Z VRB04KT 9999 SCT053 22/08 Q1028 NOSIG
UGTB 280900Z 17005KT 120V210 9999 BKN053 21/08 Q1028 NOSIG
UGTB 280830Z 17004KT 120V210 9999 BKN048 OVC058 20/09 Q1028 NOSIG
UGTB 280800Z 22004KT 190V270 9999 BKN046 OVC056 19/09 Q1028 NOSIG
UGTB 280730Z 18005KT 140V250 9999 OVC046 19/10 Q1028 NOSIG
UGTB 280700Z 14003KT 090V210 9999 OVC045 19/09 Q1028 NOSIG
UGTB 280630Z 15004KT 120V200 9999 BKN044 19/09 Q1028 NOSIG
UGTB 280600Z 15004KT 090V200 9999 SCT043 19/09 Q1028 NOSIG
UGTB 280530Z 19004KT 160V230 9999 SCT039 OVC048 18/09 Q1028 NOSIG
UGTB 280500Z 00000KT 9999 BKN037 OVC049 18/10 Q1028 NOSIG
UGTB 280430Z 00000KT 9999 BKN036 OVC050 18/10 Q1027 NOSIG
UGTB 280400Z 14001KT 9999 SCT035 OVC050 17/10 Q1027 NOSIG
UGTB 280330Z 08003KT 9999 BKN051 17/10 Q1027 NOSIG
UGTB 280300Z 11002KT 9999 OVC049 17/10 Q1027 NOSIG
UGTB 280230Z 00000KT 9999 BKN049 BKN067 17/10 Q1026 NOSIG
UGTB 280200Z 00000KT 9999 FEW051 BKN066 17/11 Q1026 NOSIG
UGTB 280130Z 00000KT 9999 FEW051 BKN062 17/12 Q1026 NOSIG
UGTB 280100Z 00000KT 9999 FEW051 BKN063 17/13 Q1026 NOSIG
UGTB 280030Z VRB01KT 9999 FEW050 BKN067 18/13 Q1026 NOSIG
UGTB 280000Z 17002KT 9999 FEW048 BKN068 18/13 Q1025 NOSIG
UGTB 272330Z 13004KT 9999 FEW048 BKN067 18/13 Q1025 NOSIG
UGTB 272300Z 14006KT 9999 FEW045 18/13 Q1025 NOSIG
UGTB 272200Z 11004KT 080V140 9999 BKN043 19/13 Q1024 NOSIG
UGTB 272130Z 00000KT 9999 BKN042 20/13 Q1024 NOSIG
UGTB 272100Z VRB02KT CAVOK 20/13 Q1024 NOSIG
UGTB 272030Z 28003KT CAVOK 20/13 Q1024 NOSIG
UGTB 272000Z 05003KT 030V100 CAVOK 20/13 Q1023 NOSIG